createdAt,value
2024-02-11T00:00:00.442Z,100.00
2024-02-11T00:02:30.197Z,100.00
2024-02-11T00:04:58.821Z,100.00
2024-02-11T00:07:27.568Z,100.00
2024-02-11T00:09:57.179Z,100.00
2024-02-11T00:12:25.744Z,100.00
2024-02-11T00:14:54.354Z,100.00
2024-02-11T00:17:23.060Z,100.00
2024-02-11T00:19:51.785Z,100.00
2024-02-11T00:22:20.610Z,100.00
2024-02-11T00:24:50.635Z,100.00
2024-02-11T00:27:19.338Z,100.00
2024-02-11T00:29:48.019Z,100.00
2024-02-11T00:32:17.170Z,100.00
2024-02-11T00:34:46.235Z,100.00
2024-02-11T00:37:14.973Z,100.00
2024-02-11T00:39:43.657Z,100.00
2024-02-11T00:42:12.651Z,100.00
2024-02-11T00:44:41.233Z,100.00
2024-02-11T00:47:11.194Z,100.00
2024-02-11T00:49:39.635Z,100.00
2024-02-11T00:52:08.313Z,100.00
2024-02-11T00:54:39.380Z,100.00
2024-02-11T00:57:09.434Z,100.00
2024-02-11T00:59:39.286Z,100.00
2024-02-11T01:02:08.694Z,100.00
2024-02-11T01:04:40.902Z,100.00
2024-02-11T01:07:09.961Z,100.00
2024-02-11T01:09:39.051Z,100.00
2024-02-11T01:12:07.731Z,100.00
2024-02-11T01:14:36.348Z,100.00
2024-02-11T01:17:05.155Z,100.00
2024-02-11T01:19:34.007Z,100.00
2024-02-11T01:22:03.194Z,100.00
2024-02-11T01:24:31.682Z,100.00
2024-02-11T01:27:01.279Z,100.00
2024-02-11T01:29:29.965Z,100.00
2024-02-11T01:32:00.218Z,100.00
2024-02-11T01:34:30.472Z,100.00
2024-02-11T01:36:59.314Z,100.00
2024-02-11T01:39:28.395Z,100.00
2024-02-11T01:41:56.975Z,100.00
2024-02-11T01:44:25.510Z,100.00
2024-02-11T01:46:54.666Z,100.00
2024-02-11T01:49:23.953Z,100.00
2024-02-11T01:51:53.358Z,100.00
2024-02-11T01:54:22.962Z,100.00
2024-02-11T01:56:52.371Z,100.00
2024-02-11T01:59:21.198Z,100.00
2024-02-11T02:01:51.550Z,100.00
2024-02-11T02:04:20.405Z,100.00
2024-02-11T02:06:50.639Z,100.00
2024-02-11T02:09:19.592Z,99.66
2024-02-11T02:11:48.274Z,100.00
2024-02-11T02:14:17.713Z,100.00
2024-02-11T02:16:46.932Z,100.00
2024-02-11T02:19:16.629Z,100.00
2024-02-11T02:21:49.361Z,100.00
2024-02-11T02:24:18.251Z,100.00
2024-02-11T02:26:48.187Z,100.00
2024-02-11T02:29:16.957Z,100.00
2024-02-11T02:31:46.751Z,100.00
2024-02-11T02:34:15.514Z,100.00
2024-02-11T02:36:44.236Z,100.00
2024-02-11T02:39:14.971Z,100.00
2024-02-11T02:41:43.715Z,100.00
2024-02-11T02:44:12.549Z,100.00
2024-02-11T02:46:41.253Z,99.98
2024-02-11T02:49:10.069Z,98.95
2024-02-11T02:51:43.418Z,98.86
2024-02-11T02:54:14.252Z,99.02
2024-02-11T02:56:42.938Z,98.75
2024-02-11T02:59:12.077Z,99.43
2024-02-11T03:01:40.851Z,99.39
2024-02-11T03:04:10.323Z,99.28
2024-02-11T03:06:38.910Z,98.78
2024-02-11T03:09:07.925Z,98.68
2024-02-11T03:11:37.206Z,99.12
2024-02-11T03:14:06.452Z,99.32
2024-02-11T03:16:35.218Z,99.63
2024-02-11T03:19:07.391Z,99.12
2024-02-11T03:21:36.350Z,98.79
2024-02-11T03:24:06.156Z,99.13
2024-02-11T03:26:35.262Z,99.25
2024-02-11T03:29:04.766Z,99.63
2024-02-11T03:31:33.688Z,99.20
2024-02-11T03:34:06.575Z,99.15
2024-02-11T03:36:35.434Z,99.88
2024-02-11T03:39:10.996Z,99.97
2024-02-11T03:41:39.678Z,100.00
2024-02-11T03:44:08.689Z,100.00
2024-02-11T03:46:37.286Z,99.98
2024-02-11T03:49:06.461Z,99.96
2024-02-11T03:51:35.446Z,99.91
2024-02-11T03:54:04.719Z,99.96
2024-02-11T03:56:35.778Z,99.93
2024-02-11T03:59:05.014Z,99.67
2024-02-11T04:01:35.612Z,99.29
2024-02-11T04:04:05.642Z,99.10
2024-02-11T04:06:36.297Z,98.72
2024-02-11T04:09:05.236Z,99.18
2024-02-11T04:11:33.792Z,99.20
2024-02-11T04:14:02.937Z,99.12
2024-02-11T04:16:31.840Z,99.20
2024-02-11T04:19:00.718Z,99.67
2024-02-11T04:21:33.801Z,99.78
2024-02-11T04:24:02.776Z,99.79
2024-02-11T04:26:31.309Z,99.92
2024-02-11T04:29:01.791Z,100.00
2024-02-11T04:31:32.678Z,100.00
2024-02-11T04:34:02.156Z,99.87
2024-02-11T04:36:31.634Z,99.15
2024-02-11T04:39:01.504Z,99.22
2024-02-11T04:41:30.062Z,98.97
2024-02-11T04:43:58.855Z,98.94
2024-02-11T04:46:27.982Z,98.77
2024-02-11T04:48:57.988Z,99.02
2024-02-11T04:51:29.270Z,98.94
2024-02-11T04:54:01.342Z,99.06
2024-02-11T04:56:30.292Z,98.88
2024-02-11T04:59:03.408Z,98.53
2024-02-11T05:01:33.305Z,98.25
2024-02-11T05:04:03.123Z,98.36
2024-02-11T05:06:33.577Z,97.98
2024-02-11T05:09:02.520Z,97.54
2024-02-11T05:11:31.176Z,97.96
2024-02-11T05:14:00.019Z,97.36
2024-02-11T05:16:29.924Z,97.45
2024-02-11T05:18:58.678Z,97.93
2024-02-11T05:21:27.424Z,97.87
2024-02-11T05:23:56.729Z,97.81
2024-02-11T05:26:26.057Z,97.79
2024-02-11T05:28:55.239Z,98.00
2024-02-11T05:31:25.445Z,98.02
2024-02-11T05:33:54.017Z,98.10
2024-02-11T05:36:22.920Z,97.61
2024-02-11T05:38:51.497Z,96.44
2024-02-11T05:41:20.242Z,93.96
2024-02-11T05:43:49.649Z,93.04
2024-02-11T05:46:18.274Z,93.52
2024-02-11T05:48:46.970Z,93.47
2024-02-11T05:51:15.645Z,93.19
2024-02-11T05:53:44.437Z,92.77
2024-02-11T05:56:15.135Z,92.10
2024-02-11T05:58:43.804Z,90.95
2024-02-11T06:01:12.578Z,90.20
2024-02-11T06:03:41.766Z,90.28
2024-02-11T06:06:10.524Z,89.04
2024-02-11T06:08:39.330Z,89.45
2024-02-11T06:11:08.777Z,89.73
2024-02-11T06:13:38.586Z,89.98
2024-02-11T06:16:07.935Z,89.35
2024-02-11T06:18:37.735Z,87.88
2024-02-11T06:21:07.546Z,88.48
2024-02-11T06:23:37.979Z,89.34
2024-02-11T06:26:06.775Z,88.39
2024-02-11T06:28:36.467Z,87.07
2024-02-11T06:31:07.728Z,85.82
2024-02-11T06:33:36.369Z,84.77
2024-02-11T06:36:07.584Z,83.96
2024-02-11T06:38:38.077Z,83.41
2024-02-11T06:41:06.800Z,82.57
2024-02-11T06:43:36.278Z,81.52
2024-02-11T06:46:05.773Z,80.55
2024-02-11T06:48:34.444Z,79.96
2024-02-11T06:51:03.447Z,79.67
2024-02-11T06:53:32.605Z,78.05
2024-02-11T06:56:01.198Z,77.92
2024-02-11T06:58:31.266Z,76.51
2024-02-11T07:01:00.700Z,74.88
2024-02-11T07:03:30.414Z,75.66
2024-02-11T07:05:59.206Z,75.67
2024-02-11T07:08:29.032Z,75.02
2024-02-11T07:10:57.762Z,75.07
2024-02-11T07:13:27.068Z,75.61
2024-02-11T07:15:58.087Z,73.94
2024-02-11T07:18:28.023Z,72.80
2024-02-11T07:20:57.614Z,72.30
2024-02-11T07:23:28.160Z,72.13
2024-02-11T07:25:57.102Z,72.16
2024-02-11T07:28:27.383Z,70.85
2024-02-11T07:30:58.094Z,69.13
2024-02-11T07:33:26.832Z,68.43
2024-02-11T07:35:55.704Z,67.92
2024-02-11T07:38:24.850Z,67.63
2024-02-11T07:40:55.216Z,67.10
2024-02-11T07:43:26.946Z,66.52
2024-02-11T07:45:59.621Z,65.22
2024-02-11T07:48:29.649Z,66.09
2024-02-11T07:50:58.636Z,63.95
2024-02-11T07:53:27.355Z,64.70
2024-02-11T07:55:55.941Z,64.15
2024-02-11T07:58:25.439Z,64.67
2024-02-11T08:00:54.208Z,63.06
2024-02-11T08:03:24.716Z,61.29
2024-02-11T08:05:54.768Z,62.08
2024-02-11T08:08:23.447Z,61.94
2024-02-11T08:10:52.963Z,61.41
2024-02-11T08:13:22.540Z,61.43
2024-02-11T08:15:51.321Z,61.90
2024-02-11T08:18:20.055Z,60.94
2024-02-11T08:20:48.694Z,60.06
2024-02-11T08:23:17.302Z,59.54
2024-02-11T08:25:47.326Z,58.82
2024-02-11T08:28:16.086Z,58.84
2024-02-11T08:30:45.279Z,59.06
2024-02-11T08:33:14.183Z,57.70
2024-02-11T08:35:43.576Z,57.81
2024-02-11T08:38:12.187Z,58.27
2024-02-11T08:40:41.490Z,57.41
2024-02-11T08:43:10.548Z,56.89
2024-02-11T08:45:39.232Z,56.65
2024-02-11T08:48:08.336Z,55.86
2024-02-11T08:50:37.137Z,56.73
2024-02-11T08:53:06.805Z,57.26
2024-02-11T08:55:35.629Z,57.26
2024-02-11T08:58:05.876Z,56.25
2024-02-11T09:00:34.639Z,55.07
2024-02-11T09:03:04.549Z,55.90
2024-02-11T09:05:35.807Z,55.40
2024-02-11T09:08:04.541Z,55.40
2024-02-11T09:10:34.604Z,55.97
2024-02-11T09:13:03.602Z,55.71
2024-02-11T09:15:32.183Z,55.21
2024-02-11T09:18:01.082Z,54.80
2024-02-11T09:20:30.195Z,54.12
2024-02-11T09:22:59.173Z,53.82
2024-02-11T09:25:30.606Z,53.54
2024-02-11T09:28:00.031Z,53.65
2024-02-11T09:30:28.701Z,53.45
2024-02-11T09:32:57.518Z,53.50
2024-02-11T09:35:27.033Z,53.32
2024-02-11T09:37:55.920Z,53.64
2024-02-11T09:40:25.167Z,53.36
2024-02-11T09:42:55.081Z,53.48
2024-02-11T09:45:25.200Z,53.01
2024-02-11T09:47:55.578Z,52.87
2024-02-11T09:50:25.822Z,51.44
2024-02-11T09:52:54.713Z,50.96
2024-02-11T09:55:24.778Z,51.69
2024-02-11T09:57:53.442Z,51.13
2024-02-11T10:00:22.103Z,51.39
2024-02-11T10:02:51.611Z,51.33
2024-02-11T10:05:24.936Z,51.83
2024-02-11T10:07:56.641Z,52.08
2024-02-11T10:10:25.570Z,52.73
2024-02-11T10:12:56.351Z,51.84
2024-02-11T10:15:26.983Z,51.84
2024-02-11T10:17:55.576Z,51.51
2024-02-11T10:20:24.539Z,51.60
2024-02-11T10:22:53.640Z,51.15
2024-02-11T10:25:24.655Z,51.39
2024-02-11T10:27:53.878Z,50.94
2024-02-11T10:30:22.529Z,51.13
2024-02-11T10:32:51.650Z,50.43
2024-02-11T10:35:20.556Z,50.66
2024-02-11T10:37:53.695Z,49.97
2024-02-11T10:40:26.358Z,48.98
2024-02-11T10:42:56.253Z,49.65
2024-02-11T10:45:26.865Z,49.70
2024-02-11T10:47:55.543Z,46.87
2024-02-11T10:50:25.651Z,45.78
2024-02-11T10:52:57.026Z,43.72
2024-02-11T10:55:25.968Z,42.85
2024-02-11T10:57:55.903Z,42.43
2024-02-11T11:00:25.997Z,42.42
2024-02-11T11:03:02.579Z,41.24
2024-02-11T11:05:34.237Z,41.17
2024-02-11T11:08:03.485Z,39.37
2024-02-11T11:10:38.741Z,39.27
2024-02-11T11:13:10.502Z,38.56
2024-02-11T11:15:39.632Z,38.83
2024-02-11T11:18:10.710Z,38.57
2024-02-11T11:20:51.552Z,37.05
2024-02-11T11:23:20.588Z,36.90
2024-02-11T11:25:55.029Z,38.03
2024-02-11T11:28:29.072Z,38.34
2024-02-11T11:30:58.988Z,38.11
2024-02-11T11:33:33.799Z,38.27
2024-02-11T11:36:04.650Z,38.83
2024-02-11T11:38:33.421Z,39.43
2024-02-11T11:41:02.300Z,39.55
2024-02-11T11:43:34.126Z,39.41
2024-02-11T11:46:06.826Z,39.69
2024-02-11T11:48:38.120Z,39.45
2024-02-11T11:51:13.134Z,39.64
2024-02-11T11:53:45.325Z,39.48
2024-02-11T11:56:15.760Z,40.42
2024-02-11T11:58:44.870Z,40.73
2024-02-11T12:01:13.612Z,40.65
2024-02-11T12:03:43.063Z,41.19
2024-02-11T12:06:12.779Z,40.73
2024-02-11T12:08:41.487Z,39.98
2024-02-11T12:11:11.057Z,40.12
2024-02-11T12:13:40.475Z,39.05
2024-02-11T12:16:17.399Z,38.77
2024-02-11T12:18:47.225Z,37.97
2024-02-11T12:21:17.077Z,37.11
2024-02-11T12:23:46.117Z,36.80
2024-02-11T12:26:20.071Z,35.87
2024-02-11T12:28:52.345Z,35.24
2024-02-11T12:31:22.198Z,34.93
2024-02-11T12:33:51.957Z,34.65
2024-02-11T12:36:24.716Z,34.37
2024-02-11T12:38:55.173Z,34.60
2024-02-11T12:41:25.050Z,34.81
2024-02-11T12:43:54.980Z,33.83
2024-02-11T12:46:23.652Z,33.11
2024-02-11T12:48:52.377Z,33.11
2024-02-11T12:51:21.599Z,33.04
2024-02-11T12:53:50.888Z,32.47
2024-02-11T12:56:20.623Z,31.46
2024-02-11T12:58:52.571Z,30.71
2024-02-11T13:01:22.334Z,30.72
2024-02-11T13:03:51.860Z,31.45
2024-02-11T13:06:20.733Z,32.01
2024-02-11T13:08:49.609Z,32.42
2024-02-11T13:11:23.333Z,32.56
2024-02-11T13:13:53.591Z,32.86
2024-02-11T13:16:23.038Z,33.65
2024-02-11T13:18:53.552Z,33.84
2024-02-11T13:21:22.562Z,34.41
2024-02-11T13:23:51.348Z,34.60
2024-02-11T13:26:20.412Z,35.12
2024-02-11T13:28:49.993Z,35.57
2024-02-11T13:31:25.343Z,35.83
2024-02-11T13:33:59.001Z,35.68
2024-02-11T13:36:28.846Z,34.44
2024-02-11T13:38:57.703Z,33.82
2024-02-11T13:41:26.598Z,33.48
2024-02-11T13:43:55.337Z,32.23
2024-02-11T13:46:23.956Z,31.83
2024-02-11T13:48:53.213Z,31.61
2024-02-11T13:51:22.244Z,31.78
2024-02-11T13:53:50.940Z,31.59
2024-02-11T13:56:19.671Z,31.21
2024-02-11T13:58:48.866Z,30.91
2024-02-11T14:01:17.797Z,31.18
2024-02-11T14:03:47.517Z,31.53
2024-02-11T14:06:16.979Z,32.13
2024-02-11T14:08:48.365Z,32.25
2024-02-11T14:11:17.900Z,32.07
2024-02-11T14:13:46.870Z,31.71
2024-02-11T14:16:17.038Z,31.65
2024-02-11T14:18:45.816Z,31.45
2024-02-11T14:21:14.665Z,31.54
2024-02-11T14:23:47.674Z,31.76
2024-02-11T14:26:18.692Z,31.39
2024-02-11T14:28:49.568Z,31.39
2024-02-11T14:31:18.115Z,31.28
2024-02-11T14:33:46.758Z,31.63
2024-02-11T14:36:16.501Z,31.94
2024-02-11T14:38:47.042Z,32.76
2024-02-11T14:41:20.569Z,33.07
2024-02-11T14:43:49.389Z,33.46
2024-02-11T14:46:20.371Z,33.78
2024-02-11T14:48:48.917Z,33.89
2024-02-11T14:51:17.949Z,33.50
2024-02-11T14:53:48.096Z,33.83
2024-02-11T14:56:16.783Z,33.95
2024-02-11T14:58:45.809Z,34.66
2024-02-11T15:01:16.330Z,35.16
2024-02-11T15:03:46.266Z,35.89
2024-02-11T15:06:15.448Z,36.44
2024-02-11T15:08:45.641Z,37.05
2024-02-11T15:11:15.942Z,37.74
2024-02-11T15:13:45.550Z,38.31
2024-02-11T15:16:14.626Z,38.81
2024-02-11T15:18:43.362Z,39.10
2024-02-11T15:21:12.310Z,39.36
2024-02-11T15:23:40.895Z,39.70
2024-02-11T15:26:10.949Z,40.08
2024-02-11T15:28:39.778Z,40.20
2024-02-11T15:31:08.786Z,40.31
2024-02-11T15:33:37.525Z,40.57
2024-02-11T15:36:08.018Z,40.70
2024-02-11T15:38:39.318Z,40.95
2024-02-11T15:41:11.268Z,40.96
2024-02-11T15:43:40.003Z,41.26
2024-02-11T15:46:08.797Z,41.37
2024-02-11T15:48:38.806Z,41.55
2024-02-11T15:51:11.282Z,41.68
2024-02-11T15:53:39.857Z,41.99
2024-02-11T15:56:09.003Z,42.15
2024-02-11T15:58:37.951Z,42.24
2024-02-11T16:01:07.329Z,42.46
2024-02-11T16:03:38.351Z,42.52
2024-02-11T16:06:07.653Z,42.85
2024-02-11T16:08:38.221Z,43.17
2024-02-11T16:11:06.854Z,43.21
2024-02-11T16:13:36.020Z,43.28
2024-02-11T16:16:05.025Z,43.47
2024-02-11T16:18:33.948Z,43.63
2024-02-11T16:21:03.083Z,43.78
2024-02-11T16:23:32.299Z,44.21
2024-02-11T16:26:01.092Z,44.30
2024-02-11T16:28:29.873Z,44.48
2024-02-11T16:30:59.799Z,44.73
2024-02-11T16:33:34.829Z,45.17
2024-02-11T16:36:04.693Z,45.55
2024-02-11T16:38:33.729Z,45.82
2024-02-11T16:41:02.657Z,45.79
2024-02-11T16:43:31.709Z,45.97
2024-02-11T16:46:00.343Z,46.89
2024-02-11T16:48:29.283Z,46.55
2024-02-11T16:51:00.003Z,46.60
2024-02-11T16:53:29.850Z,46.55
2024-02-11T16:55:58.776Z,47.01
2024-02-11T16:58:29.046Z,47.33
2024-02-11T17:01:00.346Z,47.36
2024-02-11T17:03:29.736Z,47.64
2024-02-11T17:05:58.824Z,48.01
2024-02-11T17:08:27.797Z,48.04
2024-02-11T17:10:56.686Z,48.36
2024-02-11T17:13:25.755Z,48.32
2024-02-11T17:15:56.081Z,48.79
2024-02-11T17:18:25.707Z,48.90
2024-02-11T17:21:06.599Z,48.89
2024-02-11T17:23:41.816Z,49.15
2024-02-11T17:26:12.079Z,49.20
2024-02-11T17:28:47.692Z,48.80
2024-02-11T17:31:16.564Z,49.00
2024-02-11T17:33:47.232Z,48.99
2024-02-11T17:36:16.946Z,49.22
2024-02-11T17:38:46.203Z,49.22
2024-02-11T17:41:15.777Z,49.13
2024-02-11T17:43:44.865Z,49.11
2024-02-11T17:46:15.025Z,49.11
2024-02-11T17:48:45.490Z,49.29
2024-02-11T17:51:18.527Z,49.35
2024-02-11T17:53:50.734Z,49.40
2024-02-11T17:56:20.069Z,49.53
2024-02-11T17:58:49.109Z,49.60
2024-02-11T18:01:18.973Z,49.63
2024-02-11T18:03:49.234Z,49.65
2024-02-11T18:06:18.371Z,49.76
2024-02-11T18:08:47.840Z,50.10
2024-02-11T18:11:16.651Z,50.22
2024-02-11T18:13:45.465Z,50.53
2024-02-11T18:16:14.194Z,50.64
2024-02-11T18:18:42.846Z,51.07
2024-02-11T18:21:12.490Z,51.18
2024-02-11T18:23:41.589Z,51.38
2024-02-11T18:26:13.292Z,51.70
2024-02-11T18:28:43.821Z,51.70
2024-02-11T18:31:17.589Z,52.56
2024-02-11T18:33:46.853Z,52.86
2024-02-11T18:36:15.622Z,53.80
2024-02-11T18:38:44.407Z,53.70
2024-02-11T18:41:16.009Z,53.90
2024-02-11T18:43:47.313Z,54.06
2024-02-11T18:46:17.068Z,54.81
2024-02-11T18:48:46.125Z,55.41
2024-02-11T18:51:15.383Z,55.64
2024-02-11T18:53:44.071Z,55.83
2024-02-11T18:56:12.789Z,56.11
2024-02-11T18:58:44.308Z,56.52
2024-02-11T19:01:13.062Z,56.51
2024-02-11T19:03:42.275Z,56.79
2024-02-11T19:06:11.239Z,57.10
2024-02-11T19:08:41.578Z,57.90
2024-02-11T19:11:10.839Z,57.39
2024-02-11T19:13:39.464Z,57.94
2024-02-11T19:16:09.985Z,57.59
2024-02-11T19:18:38.961Z,57.53
2024-02-11T19:21:07.874Z,59.30
2024-02-11T19:23:37.791Z,59.29
2024-02-11T19:26:06.855Z,59.70
2024-02-11T19:28:35.588Z,60.23
2024-02-11T19:31:04.568Z,60.82
2024-02-11T19:33:34.519Z,60.47
2024-02-11T19:36:03.774Z,62.04
2024-02-11T19:38:32.425Z,61.90
2024-02-11T19:41:01.382Z,61.70
2024-02-11T19:43:31.166Z,62.26
2024-02-11T19:46:00.367Z,60.33
2024-02-11T19:48:29.821Z,60.82
2024-02-11T19:51:00.196Z,61.02
2024-02-11T19:53:35.530Z,61.41
2024-02-11T19:56:09.529Z,62.62
2024-02-11T19:58:41.543Z,62.60
2024-02-11T20:01:11.463Z,64.67
2024-02-11T20:03:41.342Z,65.60
2024-02-11T20:06:10.154Z,65.73
2024-02-11T20:08:39.113Z,66.94
2024-02-11T20:11:10.285Z,67.70
2024-02-11T20:13:38.956Z,65.84
2024-02-11T20:16:14.060Z,65.33
2024-02-11T20:18:43.138Z,65.37
2024-02-11T20:21:12.584Z,68.47
2024-02-11T20:23:44.924Z,66.22
2024-02-11T20:26:16.708Z,66.02
2024-02-11T20:28:47.274Z,66.83
2024-02-11T20:31:16.440Z,65.62
2024-02-11T20:33:48.289Z,66.98
2024-02-11T20:36:17.509Z,67.05
2024-02-11T20:38:46.412Z,67.25
2024-02-11T20:41:18.779Z,67.92
2024-02-11T20:43:47.410Z,69.56
2024-02-11T20:46:16.129Z,72.48
2024-02-11T20:48:45.648Z,71.77
2024-02-11T20:51:14.318Z,71.31
2024-02-11T20:53:45.647Z,70.03
2024-02-11T20:56:15.437Z,70.98
2024-02-11T20:58:45.290Z,70.93
2024-02-11T21:01:14.232Z,70.78
2024-02-11T21:03:42.902Z,70.80
2024-02-11T21:06:13.296Z,69.31
2024-02-11T21:08:41.973Z,67.80
2024-02-11T21:11:10.588Z,68.14
2024-02-11T21:13:41.802Z,67.93
2024-02-11T21:16:11.819Z,68.93
2024-02-11T21:18:45.317Z,68.98
2024-02-11T21:21:14.662Z,68.72
2024-02-11T21:23:46.285Z,67.99
2024-02-11T21:26:17.395Z,67.11
2024-02-11T21:28:49.521Z,67.22
2024-02-11T21:31:22.299Z,66.87
2024-02-11T21:33:52.500Z,67.03
2024-02-11T21:36:21.482Z,66.80
2024-02-11T21:38:50.065Z,66.80
2024-02-11T21:41:19.509Z,67.84
2024-02-11T21:43:48.683Z,66.82
2024-02-11T21:46:19.564Z,67.66
2024-02-11T21:48:58.455Z,67.07
2024-02-11T21:51:27.647Z,69.15
2024-02-11T21:53:56.415Z,69.16
2024-02-11T21:56:24.944Z,67.47
2024-02-11T21:58:53.731Z,67.36
2024-02-11T22:01:24.621Z,67.53
2024-02-11T22:03:55.614Z,67.15
2024-02-11T22:06:27.200Z,67.59
2024-02-11T22:08:56.002Z,68.02
2024-02-11T22:11:25.370Z,68.62
2024-02-11T22:13:54.357Z,68.92
2024-02-11T22:16:23.389Z,69.00
2024-02-11T22:18:53.251Z,68.51
2024-02-11T22:21:22.086Z,67.84
2024-02-11T22:23:50.675Z,67.34
2024-02-11T22:26:19.209Z,67.26
2024-02-11T22:28:47.966Z,67.52
2024-02-11T22:31:17.365Z,67.93
2024-02-11T22:33:46.402Z,68.38
2024-02-11T22:36:17.686Z,69.24
2024-02-11T22:38:46.816Z,69.63
2024-02-11T22:41:17.456Z,69.24
2024-02-11T22:43:47.554Z,71.65
2024-02-11T22:46:16.141Z,73.35
2024-02-11T22:48:45.228Z,73.00
2024-02-11T22:51:14.109Z,70.53
2024-02-11T22:53:42.629Z,70.11
2024-02-11T22:56:11.441Z,71.66
2024-02-11T22:58:40.050Z,70.87
2024-02-11T23:01:08.655Z,71.95
2024-02-11T23:03:37.322Z,71.28
2024-02-11T23:06:06.429Z,69.64
2024-02-11T23:08:35.342Z,70.35
2024-02-11T23:11:04.006Z,73.28
2024-02-11T23:13:34.111Z,73.30
2024-02-11T23:16:03.107Z,71.26
2024-02-11T23:18:31.770Z,70.76
2024-02-11T23:21:03.195Z,71.31
2024-02-11T23:23:32.108Z,73.86
2024-02-11T23:26:04.079Z,71.73
2024-02-11T23:28:32.701Z,72.25
2024-02-11T23:31:01.366Z,72.41
2024-02-11T23:33:30.209Z,72.23
2024-02-11T23:35:58.831Z,73.47
2024-02-11T23:38:28.374Z,72.58
2024-02-11T23:40:57.240Z,72.62
2024-02-11T23:43:26.429Z,73.02
2024-02-11T23:45:55.019Z,72.23
2024-02-11T23:48:23.879Z,74.29
2024-02-11T23:50:58.169Z,74.75
2024-02-11T23:53:28.471Z,73.15
2024-02-11T23:55:57.848Z,73.88
2024-02-11T23:58:27.688Z,75.73
